sensor_id;sensor_type;location;lat;lon;timestamp;pressure;altitude;pressure_sealevel;temperature;humidity
65872;BME280;52653;50.080;21.992;2023-09-18T00:00:28;99391.67;;;15.62;100.00
65872;BME280;52653;50.080;21.992;2023-09-18T00:03:25;99387.77;;;15.64;100.00
65872;BME280;52653;50.080;21.992;2023-09-18T00:06:01;99384.72;;;15.65;100.00
65872;BME280;52653;50.080;21.992;2023-09-18T00:08:34;99387.34;;;15.66;100.00
65872;BME280;52653;50.080;21.992;2023-09-18T00:11:07;99385.70;;;15.68;100.00
65872;BME280;52653;50.080;21.992;2023-09-18T00:13:43;99383.17;;;15.69;100.00
65872;BME280;52653;50.080;21.992;2023-09-18T00:16:15;99381.06;;;15.69;100.00
65872;BME280;52653;50.080;21.992;2023-09-18T00:18:52;99382.51;;;15.68;100.00
65872;BME280;52653;50.080;21.992;2023-09-18T00:21:27;99379.05;;;15.66;100.00
65872;BME280;52653;50.080;21.992;2023-09-18T00:24:05;99380.02;;;15.61;100.00
65872;BME280;52653;50.080;21.992;2023-09-18T00:26:39;99378.16;;;15.57;100.00
65872;BME280;52653;50.080;21.992;2023-09-18T00:29:16;99378.08;;;15.53;100.00
65872;BME280;52653;50.080;21.992;2023-09-18T00:31:49;99377.48;;;15.49;100.00
65872;BME280;52653;50.080;21.992;2023-09-18T00:34:22;99379.86;;;15.46;100.00
65872;BME280;52653;50.080;21.992;2023-09-18T00:36:54;99380.31;;;15.42;100.00
65872;BME280;52653;50.080;21.992;2023-09-18T00:39:29;99378.45;;;15.38;100.00
65872;BME280;52653;50.080;21.992;2023-09-18T00:42:16;99378.22;;;15.33;100.00
65872;BME280;52653;50.080;21.992;2023-09-18T00:44:49;99379.05;;;15.28;100.00
65872;BME280;52653;50.080;21.992;2023-09-18T00:47:24;99381.61;;;15.24;100.00
65872;BME280;52653;50.080;21.992;2023-09-18T00:49:57;99379.94;;;15.20;100.00
65872;BME280;52653;50.080;21.992;2023-09-18T00:52:43;99377.54;;;15.18;100.00
65872;BME280;52653;50.080;21.992;2023-09-18T00:55:19;99372.98;;;15.16;100.00
65872;BME280;52653;50.080;21.992;2023-09-18T00:57:56;99373.77;;;15.13;100.00
65872;BME280;52653;50.080;21.992;2023-09-18T01:00:29;99375.91;;;15.11;100.00
65872;BME280;52653;50.080;21.992;2023-09-18T01:03:05;99375.41;;;15.10;100.00
65872;BME280;52653;50.080;21.992;2023-09-18T01:05:47;99377.58;;;15.08;100.00
65872;BME280;52653;50.080;21.992;2023-09-18T01:08:21;99373.42;;;15.05;100.00
65872;BME280;52653;50.080;21.992;2023-09-18T01:11:16;99373.11;;;15.03;100.00
65872;BME280;52653;50.080;21.992;2023-09-18T01:14:00;99370.02;;;14.99;100.00
65872;BME280;52653;50.080;21.992;2023-09-18T01:16:41;99371.67;;;14.96;100.00
65872;BME280;52653;50.080;21.992;2023-09-18T01:19:17;99373.55;;;14.92;100.00
65872;BME280;52653;50.080;21.992;2023-09-18T01:22:18;99376.48;;;14.86;100.00
65872;BME280;52653;50.080;21.992;2023-09-18T01:24:53;99379.73;;;14.83;100.00
65872;BME280;52653;50.080;21.992;2023-09-18T01:27:26;99379.30;;;14.79;100.00
65872;BME280;52653;50.080;21.992;2023-09-18T01:30:12;99382.58;;;14.75;100.00
65872;BME280;52653;50.080;21.992;2023-09-18T01:32:52;99380.52;;;14.72;100.00
65872;BME280;52653;50.080;21.992;2023-09-18T01:35:38;99380.04;;;14.69;100.00
65872;BME280;52653;50.080;21.992;2023-09-18T01:38:12;99378.16;;;14.66;100.00
65872;BME280;52653;50.080;21.992;2023-09-18T01:40:55;99375.23;;;14.64;100.00
65872;BME280;52653;50.080;21.992;2023-09-18T01:43:38;99375.94;;;14.63;100.00
65872;BME280;52653;50.080;21.992;2023-09-18T01:46:14;99379.53;;;14.60;100.00
65872;BME280;52653;50.080;21.992;2023-09-18T01:49:08;99379.28;;;14.55;100.00
65872;BME280;52653;50.080;21.992;2023-09-18T01:51:51;99381.52;;;14.50;100.00
65872;BME280;52653;50.080;21.992;2023-09-18T01:54:24;99384.59;;;14.46;100.00
65872;BME280;52653;50.080;21.992;2023-09-18T01:57:07;99383.60;;;14.41;100.00
65872;BME280;52653;50.080;21.992;2023-09-18T01:59:39;99385.61;;;14.38;100.00
65872;BME280;52653;50.080;21.992;2023-09-18T02:02:15;99386.19;;;14.35;100.00
65872;BME280;52653;50.080;21.992;2023-09-18T02:05:04;99385.88;;;14.32;100.00
65872;BME280;52653;50.080;21.992;2023-09-18T02:07:41;99390.16;;;14.31;100.00
65872;BME280;52653;50.080;21.992;2023-09-18T02:10:14;99388.46;;;14.28;100.00
65872;BME280;52653;50.080;21.992;2023-09-18T02:13:08;99383.80;;;14.23;100.00
65872;BME280;52653;50.080;21.992;2023-09-18T02:15:41;99385.28;;;14.19;100.00
65872;BME280;52653;50.080;21.992;2023-09-18T02:18:39;99382.56;;;14.13;100.00
65872;BME280;52653;50.080;21.992;2023-09-18T02:21:11;99380.01;;;14.09;100.00
65872;BME280;52653;50.080;21.992;2023-09-18T02:23:44;99386.97;;;14.04;100.00
65872;BME280;52653;50.080;21.992;2023-09-18T02:26:20;99383.02;;;14.00;100.00
65872;BME280;52653;50.080;21.992;2023-09-18T02:28:54;99383.25;;;13.96;100.00
65872;BME280;52653;50.080;21.992;2023-09-18T02:31:27;99383.86;;;13.92;100.00
65872;BME280;52653;50.080;21.992;2023-09-18T02:34:22;99386.23;;;13.88;100.00
65872;BME280;52653;50.080;21.992;2023-09-18T02:36:55;99388.05;;;13.84;100.00
65872;BME280;52653;50.080;21.992;2023-09-18T02:39:28;99385.47;;;13.80;100.00
65872;BME280;52653;50.080;21.992;2023-09-18T02:42:00;99386.98;;;13.75;100.00
65872;BME280;52653;50.080;21.992;2023-09-18T02:44:37;99389.52;;;13.71;100.00
65872;BME280;52653;50.080;21.992;2023-09-18T02:47:10;99388.88;;;13.67;100.00
65872;BME280;52653;50.080;21.992;2023-09-18T02:49:54;99387.54;;;13.64;100.00
65872;BME280;52653;50.080;21.992;2023-09-18T02:52:29;99386.71;;;13.61;100.00
65872;BME280;52653;50.080;21.992;2023-09-18T02:55:02;99383.58;;;13.58;100.00
65872;BME280;52653;50.080;21.992;2023-09-18T02:57:47;99380.44;;;13.55;100.00
65872;BME280;52653;50.080;21.992;2023-09-18T03:00:20;99378.70;;;13.54;100.00
65872;BME280;52653;50.080;21.992;2023-09-18T03:03:13;99378.40;;;13.51;100.00
65872;BME280;52653;50.080;21.992;2023-09-18T03:05:48;99383.73;;;13.49;100.00
65872;BME280;52653;50.080;21.992;2023-09-18T03:08:23;99385.88;;;13.48;100.00
65872;BME280;52653;50.080;21.992;2023-09-18T03:10:56;99382.89;;;13.45;100.00
65872;BME280;52653;50.080;21.992;2023-09-18T03:13:29;99383.63;;;13.44;100.00
65872;BME280;52653;50.080;21.992;2023-09-18T03:16:09;99379.08;;;13.42;100.00
65872;BME280;52653;50.080;21.992;2023-09-18T03:18:43;99376.99;;;13.41;100.00
65872;BME280;52653;50.080;21.992;2023-09-18T03:21:15;99375.77;;;13.40;100.00
65872;BME280;52653;50.080;21.992;2023-09-18T03:23:50;99372.95;;;13.40;100.00
65872;BME280;52653;50.080;21.992;2023-09-18T03:26:23;99371.02;;;13.39;100.00
65872;BME280;52653;50.080;21.992;2023-09-18T03:28:58;99371.23;;;13.38;100.00
65872;BME280;52653;50.080;21.992;2023-09-18T03:31:33;99368.28;;;13.35;100.00
65872;BME280;52653;50.080;21.992;2023-09-18T03:34:06;99371.11;;;13.34;100.00
65872;BME280;52653;50.080;21.992;2023-09-18T03:36:39;99370.23;;;13.34;100.00
65872;BME280;52653;50.080;21.992;2023-09-18T03:39:12;99366.15;;;13.36;100.00
65872;BME280;52653;50.080;21.992;2023-09-18T03:41:45;99368.23;;;13.39;100.00
65872;BME280;52653;50.080;21.992;2023-09-18T03:44:22;99366.36;;;13.43;100.00
65872;BME280;52653;50.080;21.992;2023-09-18T03:46:57;99367.73;;;13.46;100.00
65872;BME280;52653;50.080;21.992;2023-09-18T03:49:30;99365.26;;;13.47;100.00
65872;BME280;52653;50.080;21.992;2023-09-18T03:52:06;99360.33;;;13.47;100.00
65872;BME280;52653;50.080;21.992;2023-09-18T03:54:50;99362.98;;;13.47;100.00
65872;BME280;52653;50.080;21.992;2023-09-18T03:57:26;99364.18;;;13.48;100.00
65872;BME280;52653;50.080;21.992;2023-09-18T04:00:01;99358.02;;;13.49;100.00
65872;BME280;52653;50.080;21.992;2023-09-18T04:02:41;99360.07;;;13.52;100.00
65872;BME280;52653;50.080;21.992;2023-09-18T04:05:17;99357.89;;;13.55;100.00
65872;BME280;52653;50.080;21.992;2023-09-18T04:07:50;99355.36;;;13.58;100.00
65872;BME280;52653;50.080;21.992;2023-09-18T04:10:27;99356.19;;;13.62;100.00
65872;BME280;52653;50.080;21.992;2023-09-18T04:12:59;99355.23;;;13.66;100.00
65872;BME280;52653;50.080;21.992;2023-09-18T04:15:42;99354.80;;;13.70;100.00
65872;BME280;52653;50.080;21.992;2023-09-18T04:18:28;99349.48;;;13.72;100.00
65872;BME280;52653;50.080;21.992;2023-09-18T04:21:01;99351.60;;;13.73;100.00
65872;BME280;52653;50.080;21.992;2023-09-18T04:23:34;99348.21;;;13.75;100.00
65872;BME280;52653;50.080;21.992;2023-09-18T04:26:08;99341.30;;;13.76;100.00
65872;BME280;52653;50.080;21.992;2023-09-18T04:28:45;99339.15;;;13.78;100.00
65872;BME280;52653;50.080;21.992;2023-09-18T04:31:21;99338.36;;;13.82;100.00
65872;BME280;52653;50.080;21.992;2023-09-18T04:34:04;99343.39;;;13.88;100.00
65872;BME280;52653;50.080;21.992;2023-09-18T04:36:37;99341.48;;;13.95;100.00
65872;BME280;52653;50.080;21.992;2023-09-18T04:39:10;99337.71;;;14.07;100.00
65872;BME280;52653;50.080;21.992;2023-09-18T04:41:43;99342.48;;;14.24;100.00
65872;BME280;52653;50.080;21.992;2023-09-18T04:44:19;99340.38;;;14.41;100.00
65872;BME280;52653;50.080;21.992;2023-09-18T04:46:54;99337.50;;;14.61;100.00
65872;BME280;52653;50.080;21.992;2023-09-18T04:49:31;99340.02;;;14.82;100.00
65872;BME280;52653;50.080;21.992;2023-09-18T04:52:06;99338.84;;;15.03;100.00
65872;BME280;52653;50.080;21.992;2023-09-18T04:54:42;99337.41;;;15.25;100.00
65872;BME280;52653;50.080;21.992;2023-09-18T04:57:35;99338.77;;;15.49;100.00
65872;BME280;52653;50.080;21.992;2023-09-18T05:00:16;99338.38;;;15.71;100.00
65872;BME280;52653;50.080;21.992;2023-09-18T05:02:52;99338.32;;;15.94;100.00
65872;BME280;52653;50.080;21.992;2023-09-18T05:05:25;99335.30;;;16.13;100.00
65872;BME280;52653;50.080;21.992;2023-09-18T05:08:00;99334.23;;;16.32;100.00
65872;BME280;52653;50.080;21.992;2023-09-18T05:10:37;99335.13;;;16.50;100.00
65872;BME280;52653;50.080;21.992;2023-09-18T05:13:13;99334.45;;;16.67;100.00
65872;BME280;52653;50.080;21.992;2023-09-18T05:15:47;99332.39;;;16.82;100.00
65872;BME280;52653;50.080;21.992;2023-09-18T05:18:20;99329.48;;;16.96;100.00
65872;BME280;52653;50.080;21.992;2023-09-18T05:20:55;99329.77;;;17.09;100.00
65872;BME280;52653;50.080;21.992;2023-09-18T05:23:49;99332.14;;;17.24;100.00
65872;BME280;52653;50.080;21.992;2023-09-18T05:26:45;99331.54;;;17.36;100.00
65872;BME280;52653;50.080;21.992;2023-09-18T05:29:30;99334.30;;;17.49;100.00
65872;BME280;52653;50.080;21.992;2023-09-18T05:32:23;99329.65;;;17.60;100.00
65872;BME280;52653;50.080;21.992;2023-09-18T05:35:16;99325.23;;;17.72;100.00
65872;BME280;52653;50.080;21.992;2023-09-18T05:38:10;99325.00;;;17.83;100.00
65872;BME280;52653;50.080;21.992;2023-09-18T05:41:05;99322.79;;;17.95;100.00
65872;BME280;52653;50.080;21.992;2023-09-18T05:43:50;99322.23;;;18.06;100.00
65872;BME280;52653;50.080;21.992;2023-09-18T05:46:43;99322.34;;;18.17;100.00
65872;BME280;52653;50.080;21.992;2023-09-18T05:49:36;99317.84;;;18.28;100.00
65872;BME280;52653;50.080;21.992;2023-09-18T05:52:19;99318.14;;;18.39;100.00
65872;BME280;52653;50.080;21.992;2023-09-18T05:55:16;99314.73;;;18.50;100.00
65872;BME280;52653;50.080;21.992;2023-09-18T05:57:51;99317.10;;;18.57;100.00
65872;BME280;52653;50.080;21.992;2023-09-18T06:00:27;99315.22;;;18.65;100.00
65872;BME280;52653;50.080;21.992;2023-09-18T06:03:24;99310.17;;;18.76;100.00
65872;BME280;52653;50.080;21.992;2023-09-18T06:06:16;99308.05;;;18.90;100.00
65872;BME280;52653;50.080;21.992;2023-09-18T06:09:11;99304.98;;;19.04;100.00
65872;BME280;52653;50.080;21.992;2023-09-18T06:12:04;99303.95;;;19.16;100.00
65872;BME280;52653;50.080;21.992;2023-09-18T06:14:59;99302.94;;;19.27;99.74
65872;BME280;52653;50.080;21.992;2023-09-18T06:17:52;99302.77;;;19.40;99.05
65872;BME280;52653;50.080;21.992;2023-09-18T06:20:27;99302.81;;;19.56;98.91
65872;BME280;52653;50.080;21.992;2023-09-18T06:23:03;99303.95;;;19.75;98.93
65872;BME280;52653;50.080;21.992;2023-09-18T06:25:56;99305.16;;;19.97;98.44
65872;BME280;52653;50.080;21.992;2023-09-18T06:28:50;99300.11;;;20.18;97.33
65872;BME280;52653;50.080;21.992;2023-09-18T06:31:37;99296.88;;;20.38;96.04
65872;BME280;52653;50.080;21.992;2023-09-18T06:34:14;99293.71;;;20.53;95.28
65872;BME280;52653;50.080;21.992;2023-09-18T06:37:00;99292.77;;;20.69;94.59
65872;BME280;52653;50.080;21.992;2023-09-18T06:39:35;99292.04;;;20.84;93.59
65872;BME280;52653;50.080;21.992;2023-09-18T06:42:08;99293.94;;;21.00;93.25
65872;BME280;52653;50.080;21.992;2023-09-18T06:44:41;99290.48;;;21.12;92.31
65872;BME280;52653;50.080;21.992;2023-09-18T06:47:14;99292.30;;;21.26;90.83
65872;BME280;52653;50.080;21.992;2023-09-18T06:49:50;99289.92;;;21.38;89.91
65872;BME280;52653;50.080;21.992;2023-09-18T06:52:43;99289.10;;;21.51;88.78
65872;BME280;52653;50.080;21.992;2023-09-18T06:55:39;99283.54;;;21.65;88.13
65872;BME280;52653;50.080;21.992;2023-09-18T06:58:24;99288.95;;;21.78;86.74
65872;BME280;52653;50.080;21.992;2023-09-18T07:01:17;99289.17;;;21.91;85.75
65872;BME280;52653;50.080;21.992;2023-09-18T07:04:10;99283.18;;;22.03;84.46
65872;BME280;52653;50.080;21.992;2023-09-18T07:06:46;99282.84;;;22.13;83.44
65872;BME280;52653;50.080;21.992;2023-09-18T07:09:39;99284.61;;;22.26;83.08
65872;BME280;52653;50.080;21.992;2023-09-18T07:12:37;99280.92;;;22.41;82.56
65872;BME280;52653;50.080;21.992;2023-09-18T07:15:10;99274.98;;;22.55;81.06
65872;BME280;52653;50.080;21.992;2023-09-18T07:17:43;99275.59;;;22.67;80.83
65872;BME280;52653;50.080;21.992;2023-09-18T07:20:16;99279.29;;;22.80;80.78
65872;BME280;52653;50.080;21.992;2023-09-18T07:22:53;99287.73;;;22.96;79.98
65872;BME280;52653;50.080;21.992;2023-09-18T07:25:38;99288.36;;;23.13;79.83
65872;BME280;52653;50.080;21.992;2023-09-18T07:28:23;99286.09;;;23.27;78.50
65872;BME280;52653;50.080;21.992;2023-09-18T07:31:09;99291.17;;;23.38;77.04
65872;BME280;52653;50.080;21.992;2023-09-18T07:33:46;99292.79;;;23.47;76.35
65872;BME280;52653;50.080;21.992;2023-09-18T07:36:22;99290.61;;;23.57;76.20
65872;BME280;52653;50.080;21.992;2023-09-18T07:38:55;99290.08;;;23.69;76.10
65872;BME280;52653;50.080;21.992;2023-09-18T07:41:31;99286.94;;;23.80;75.63
65872;BME280;52653;50.080;21.992;2023-09-18T07:44:04;99290.70;;;23.88;74.18
65872;BME280;52653;50.080;21.992;2023-09-18T07:46:37;99292.75;;;23.90;73.08
65872;BME280;52653;50.080;21.992;2023-09-18T07:49:10;99296.47;;;23.93;72.91
65872;BME280;52653;50.080;21.992;2023-09-18T07:51:45;99291.72;;;23.98;72.18
65872;BME280;52653;50.080;21.992;2023-09-18T07:54:20;99287.17;;;24.02;72.58
65872;BME280;52653;50.080;21.992;2023-09-18T07:56:53;99282.98;;;24.06;71.72
65872;BME280;52653;50.080;21.992;2023-09-18T07:59:26;99282.89;;;24.11;71.55
65872;BME280;52653;50.080;21.992;2023-09-18T08:02:01;99284.06;;;24.15;70.51
65872;BME280;52653;50.080;21.992;2023-09-18T08:04:34;99280.05;;;24.21;71.08
65872;BME280;52653;50.080;21.992;2023-09-18T08:07:06;99282.70;;;24.28;70.34
65872;BME280;52653;50.080;21.992;2023-09-18T08:09:39;99277.85;;;24.31;69.95
65872;BME280;52653;50.080;21.992;2023-09-18T08:12:14;99274.52;;;24.39;70.32
65872;BME280;52653;50.080;21.992;2023-09-18T08:14:47;99276.09;;;24.45;70.57
65872;BME280;52653;50.080;21.992;2023-09-18T08:17:21;99274.20;;;24.52;69.46
65872;BME280;52653;50.080;21.992;2023-09-18T08:19:54;99277.54;;;24.56;69.21
65872;BME280;52653;50.080;21.992;2023-09-18T08:22:30;99272.76;;;24.55;67.60
65872;BME280;52653;50.080;21.992;2023-09-18T08:25:03;99275.98;;;24.60;68.31
65872;BME280;52653;50.080;21.992;2023-09-18T08:27:36;99275.19;;;24.70;68.99
65872;BME280;52653;50.080;21.992;2023-09-18T08:30:13;99276.61;;;24.76;68.25
65872;BME280;52653;50.080;21.992;2023-09-18T08:32:47;99275.55;;;24.81;67.92
65872;BME280;52653;50.080;21.992;2023-09-18T08:35:20;99271.52;;;24.85;67.74
65872;BME280;52653;50.080;21.992;2023-09-18T08:37:54;99273.64;;;24.88;67.25
65872;BME280;52653;50.080;21.992;2023-09-18T08:40:28;99271.55;;;24.93;66.57
65872;BME280;52653;50.080;21.992;2023-09-18T08:43:01;99269.63;;;25.00;67.32
65872;BME280;52653;50.080;21.992;2023-09-18T08:45:37;99271.80;;;25.09;66.91
65872;BME280;52653;50.080;21.992;2023-09-18T08:48:13;99271.32;;;25.13;66.34
65872;BME280;52653;50.080;21.992;2023-09-18T08:50:46;99265.51;;;25.14;64.92
65872;BME280;52653;50.080;21.992;2023-09-18T08:53:22;99269.41;;;25.17;65.32
65872;BME280;52653;50.080;21.992;2023-09-18T08:56:01;99260.73;;;25.21;64.35
65872;BME280;52653;50.080;21.992;2023-09-18T08:58:36;99269.33;;;25.27;65.10
65872;BME280;52653;50.080;21.992;2023-09-18T09:01:11;99265.93;;;25.35;64.90
65872;BME280;52653;50.080;21.992;2023-09-18T09:03:44;99268.48;;;25.44;64.87
65872;BME280;52653;50.080;21.992;2023-09-18T09:06:17;99267.20;;;25.50;63.97
65872;BME280;52653;50.080;21.992;2023-09-18T09:08:52;99268.41;;;25.53;63.39
65872;BME280;52653;50.080;21.992;2023-09-18T09:11:25;99262.16;;;25.56;63.53
65872;BME280;52653;50.080;21.992;2023-09-18T09:14:12;99265.34;;;25.57;63.20
65872;BME280;52653;50.080;21.992;2023-09-18T09:16:53;99261.78;;;25.56;62.48
65872;BME280;52653;50.080;21.992;2023-09-18T09:19:34;99257.17;;;25.58;62.85
65872;BME280;52653;50.080;21.992;2023-09-18T09:22:10;99255.84;;;25.61;62.45
65872;BME280;52653;50.080;21.992;2023-09-18T09:24:51;99248.64;;;25.64;62.41
65872;BME280;52653;50.080;21.992;2023-09-18T09:27:43;99249.35;;;25.70;63.32
65872;BME280;52653;50.080;21.992;2023-09-18T09:30:22;99251.48;;;25.80;63.42
65872;BME280;52653;50.080;21.992;2023-09-18T09:32:57;99249.02;;;25.85;62.35
65872;BME280;52653;50.080;21.992;2023-09-18T09:35:40;99242.46;;;25.89;62.12
65872;BME280;52653;50.080;21.992;2023-09-18T09:38:14;99239.93;;;25.97;62.67
65872;BME280;52653;50.080;21.992;2023-09-18T09:40:47;99239.50;;;26.05;62.33
65872;BME280;52653;50.080;21.992;2023-09-18T09:43:20;99239.00;;;26.09;60.66
65872;BME280;52653;50.080;21.992;2023-09-18T09:45:58;99236.77;;;26.13;60.72
65872;BME280;52653;50.080;21.992;2023-09-18T09:48:31;99230.48;;;26.18;60.77
65872;BME280;52653;50.080;21.992;2023-09-18T09:51:04;99235.05;;;26.22;59.50
65872;BME280;52653;50.080;21.992;2023-09-18T09:53:46;99238.15;;;26.21;59.14
65872;BME280;52653;50.080;21.992;2023-09-18T09:56:23;99236.23;;;26.21;58.62
65872;BME280;52653;50.080;21.992;2023-09-18T09:59:13;99234.19;;;26.19;58.68
65872;BME280;52653;50.080;21.992;2023-09-18T10:01:47;99234.84;;;26.25;59.15
65872;BME280;52653;50.080;21.992;2023-09-18T10:04:22;99232.27;;;26.28;58.65
65872;BME280;52653;50.080;21.992;2023-09-18T10:07:07;99230.48;;;26.31;58.53
65872;BME280;52653;50.080;21.992;2023-09-18T10:09:45;99232.67;;;26.32;58.97
65872;BME280;52653;50.080;21.992;2023-09-18T10:12:23;99228.04;;;26.34;58.90
65872;BME280;52653;50.080;21.992;2023-09-18T10:14:59;99223.08;;;26.38;58.08
65872;BME280;52653;50.080;21.992;2023-09-18T10:17:35;99218.98;;;26.44;57.54
65872;BME280;52653;50.080;21.992;2023-09-18T10:20:11;99215.93;;;26.46;56.94
65872;BME280;52653;50.080;21.992;2023-09-18T10:22:56;99209.65;;;26.53;57.69
65872;BME280;52653;50.080;21.992;2023-09-18T10:25:36;99203.40;;;26.62;58.40
65872;BME280;52653;50.080;21.992;2023-09-18T10:28:09;99202.10;;;26.74;59.06
65872;BME280;52653;50.080;21.992;2023-09-18T10:30:44;99206.14;;;26.83;57.46
65872;BME280;52653;50.080;21.992;2023-09-18T10:33:21;99203.33;;;26.87;57.23
65872;BME280;52653;50.080;21.992;2023-09-18T10:35:59;99204.80;;;26.91;57.27
65872;BME280;52653;50.080;21.992;2023-09-18T10:38:35;99195.80;;;26.96;57.27
65872;BME280;52653;50.080;21.992;2023-09-18T10:41:10;99194.48;;;26.99;57.05
65872;BME280;52653;50.080;21.992;2023-09-18T10:43:46;99193.85;;;27.03;57.10
65872;BME280;52653;50.080;21.992;2023-09-18T10:46:24;99199.59;;;27.06;56.05
65872;BME280;52653;50.080;21.992;2023-09-18T10:48:57;99193.16;;;27.08;56.41
65872;BME280;52653;50.080;21.992;2023-09-18T10:51:32;99195.55;;;27.12;56.63
65872;BME280;52653;50.080;21.992;2023-09-18T10:54:06;99194.98;;;27.14;56.28
65872;BME280;52653;50.080;21.992;2023-09-18T10:56:41;99195.00;;;27.17;56.34
65872;BME280;52653;50.080;21.992;2023-09-18T10:59:17;99197.84;;;27.24;56.22
65872;BME280;52653;50.080;21.992;2023-09-18T11:01:54;99194.80;;;27.28;55.27
65872;BME280;52653;50.080;21.992;2023-09-18T11:04:26;99195.48;;;27.29;54.57
65872;BME280;52653;50.080;21.992;2023-09-18T11:07:09;99194.25;;;27.29;54.08
65872;BME280;52653;50.080;21.992;2023-09-18T11:09:51;99188.92;;;27.25;53.92
65872;BME280;52653;50.080;21.992;2023-09-18T11:12:43;99193.63;;;27.18;53.90
65872;BME280;52653;50.080;21.992;2023-09-18T11:15:32;99190.61;;;27.13;54.20
65872;BME280;52653;50.080;21.992;2023-09-18T11:18:05;99191.82;;;27.13;54.39
65872;BME280;52653;50.080;21.992;2023-09-18T11:20:40;99189.77;;;27.14;54.11
65872;BME280;52653;50.080;21.992;2023-09-18T11:23:21;99187.98;;;27.12;54.80
65872;BME280;52653;50.080;21.992;2023-09-18T11:26:08;99184.73;;;27.12;54.57
65872;BME280;52653;50.080;21.992;2023-09-18T11:28:43;99188.48;;;27.14;53.91
65872;BME280;52653;50.080;21.992;2023-09-18T11:31:21;99181.60;;;27.13;53.52
65872;BME280;52653;50.080;21.992;2023-09-18T11:34:19;99182.59;;;27.14;54.20
65872;BME280;52653;50.080;21.992;2023-09-18T11:36:50;99178.70;;;27.23;54.41
65872;BME280;52653;50.080;21.992;2023-09-18T11:39:38;99175.14;;;27.29;54.39
65872;BME280;52653;50.080;21.992;2023-09-18T11:42:14;99171.39;;;27.31;53.23
65872;BME280;52653;50.080;21.992;2023-09-18T11:44:47;99175.80;;;27.29;53.57
65872;BME280;52653;50.080;21.992;2023-09-18T11:47:23;99172.18;;;27.33;53.48
65872;BME280;52653;50.080;21.992;2023-09-18T11:50:01;99174.71;;;27.37;53.74
65872;BME280;52653;50.080;21.992;2023-09-18T11:52:40;99177.63;;;27.41;53.71
65872;BME280;52653;50.080;21.992;2023-09-18T11:55:14;99171.80;;;27.46;53.96
65872;BME280;52653;50.080;21.992;2023-09-18T11:57:48;99166.55;;;27.49;53.15
65872;BME280;52653;50.080;21.992;2023-09-18T12:00:21;99166.94;;;27.49;53.08
65872;BME280;52653;50.080;21.992;2023-09-18T12:02:57;99161.11;;;27.51;53.54
65872;BME280;52653;50.080;21.992;2023-09-18T12:05:32;99164.45;;;27.55;53.39
65872;BME280;52653;50.080;21.992;2023-09-18T12:08:06;99158.36;;;27.62;53.31
65872;BME280;52653;50.080;21.992;2023-09-18T12:10:45;99151.13;;;27.64;52.63
65872;BME280;52653;50.080;21.992;2023-09-18T12:13:23;99148.21;;;27.63;51.68
65872;BME280;52653;50.080;21.992;2023-09-18T12:16:00;99143.21;;;27.57;52.26
65872;BME280;52653;50.080;21.992;2023-09-18T12:18:48;99149.29;;;27.60;52.82
65872;BME280;52653;50.080;21.992;2023-09-18T12:21:24;99146.54;;;27.61;53.17
65872;BME280;52653;50.080;21.992;2023-09-18T12:24:06;99141.08;;;27.62;53.39
65872;BME280;52653;50.080;21.992;2023-09-18T12:26:39;99139.84;;;27.66;53.79
65872;BME280;52653;50.080;21.992;2023-09-18T12:29:12;99139.28;;;27.68;53.16
65872;BME280;52653;50.080;21.992;2023-09-18T12:31:47;99139.09;;;27.71;52.90
65872;BME280;52653;50.080;21.992;2023-09-18T12:34:31;99137.30;;;27.71;52.19
65872;BME280;52653;50.080;21.992;2023-09-18T12:37:07;99132.54;;;27.69;52.18
65872;BME280;52653;50.080;21.992;2023-09-18T12:39:52;99136.23;;;27.63;51.67
65872;BME280;52653;50.080;21.992;2023-09-18T12:42:27;99135.05;;;27.60;51.73
65872;BME280;52653;50.080;21.992;2023-09-18T12:45:11;99129.15;;;27.57;51.89
65872;BME280;52653;50.080;21.992;2023-09-18T12:47:44;99124.13;;;27.54;51.87
65872;BME280;52653;50.080;21.992;2023-09-18T12:50:17;99124.36;;;27.55;51.93
65872;BME280;52653;50.080;21.992;2023-09-18T12:52:53;99120.78;;;27.55;52.07
65872;BME280;52653;50.080;21.992;2023-09-18T12:55:27;99116.91;;;27.57;52.01
65872;BME280;52653;50.080;21.992;2023-09-18T12:58:00;99121.56;;;27.62;52.18
65872;BME280;52653;50.080;21.992;2023-09-18T13:00:37;99114.95;;;27.66;51.77
65872;BME280;52653;50.080;21.992;2023-09-18T13:03:18;99109.20;;;27.63;51.14
65872;BME280;52653;50.080;21.992;2023-09-18T13:05:54;99107.45;;;27.60;51.57
65872;BME280;52653;50.080;21.992;2023-09-18T13:08:38;99106.43;;;27.60;51.12
65872;BME280;52653;50.080;21.992;2023-09-18T13:11:11;99108.77;;;27.58;51.03
65872;BME280;52653;50.080;21.992;2023-09-18T13:13:56;99110.05;;;27.52;50.40
65872;BME280;52653;50.080;21.992;2023-09-18T13:16:29;99097.13;;;27.45;50.22
65872;BME280;52653;50.080;21.992;2023-09-18T13:19:06;99090.84;;;27.40;50.59
65872;BME280;52653;50.080;21.992;2023-09-18T13:21:39;99086.64;;;27.41;50.99
65872;BME280;52653;50.080;21.992;2023-09-18T13:24:29;99085.61;;;27.38;50.94
65872;BME280;52653;50.080;21.992;2023-09-18T13:27:03;99081.76;;;27.34;51.52
65872;BME280;52653;50.080;21.992;2023-09-18T13:29:35;99078.52;;;27.35;51.34
65872;BME280;52653;50.080;21.992;2023-09-18T13:32:10;99071.14;;;27.36;51.42
65872;BME280;52653;50.080;21.992;2023-09-18T13:34:43;99066.91;;;27.38;51.24
65872;BME280;52653;50.080;21.992;2023-09-18T13:37:16;99067.83;;;27.40;50.93
65872;BME280;52653;50.080;21.992;2023-09-18T13:39:51;99061.84;;;27.38;51.16
65872;BME280;52653;50.080;21.992;2023-09-18T13:42:24;99063.71;;;27.35;51.00